sensor_id;sensor_type;location;lat;lon;timestamp;temperature;humidity
31271;DHT22;17904;47.420;9.310;2022-08-07T00:01:20;15.50;99.90
31271;DHT22;17904;47.420;9.310;2022-08-07T00:04:07;15.50;99.90
31271;DHT22;17904;47.420;9.310;2022-08-07T00:06:37;15.50;99.90
31271;DHT22;17904;47.420;9.310;2022-08-07T00:09:18;15.60;99.90
31271;DHT22;17904;47.420;9.310;2022-08-07T00:11:48;15.60;99.90
31271;DHT22;17904;47.420;9.310;2022-08-07T00:14:25;15.60;99.90
31271;DHT22;17904;47.420;9.310;2022-08-07T00:17:00;15.60;99.90
31271;DHT22;17904;47.420;9.310;2022-08-07T00:19:29;15.70;99.90
31271;DHT22;17904;47.420;9.310;2022-08-07T00:22:17;15.70;99.90
31271;DHT22;17904;47.420;9.310;2022-08-07T00:25:08;15.70;99.90
31271;DHT22;17904;47.420;9.310;2022-08-07T00:27:42;15.70;99.90
31271;DHT22;17904;47.420;9.310;2022-08-07T00:30:20;15.70;99.90
31271;DHT22;17904;47.420;9.310;2022-08-07T00:32:58;15.70;99.90
31271;DHT22;17904;47.420;9.310;2022-08-07T00:35:27;15.60;99.90
31271;DHT22;17904;47.420;9.310;2022-08-07T00:37:57;15.60;99.90
31271;DHT22;17904;47.420;9.310;2022-08-07T00:40:25;15.60;99.90
31271;DHT22;17904;47.420;9.310;2022-08-07T00:43:10;15.50;99.90
31271;DHT22;17904;47.420;9.310;2022-08-07T00:45:59;15.50;99.90
31271;DHT22;17904;47.420;9.310;2022-08-07T00:48:28;15.50;99.90
31271;DHT22;17904;47.420;9.310;2022-08-07T00:50:58;15.40;99.90
31271;DHT22;17904;47.420;9.310;2022-08-07T00:53:26;15.40;99.90
31271;DHT22;17904;47.420;9.310;2022-08-07T00:56:13;15.40;99.90
31271;DHT22;17904;47.420;9.310;2022-08-07T00:58:42;15.40;99.90
31271;DHT22;17904;47.420;9.310;2022-08-07T01:01:14;15.40;99.90
31271;DHT22;17904;47.420;9.310;2022-08-07T01:03:41;15.40;99.90
31271;DHT22;17904;47.420;9.310;2022-08-07T01:06:27;15.40;99.90
31271;DHT22;17904;47.420;9.310;2022-08-07T01:08:55;15.40;99.90
31271;DHT22;17904;47.420;9.310;2022-08-07T01:11:30;15.40;99.90
31271;DHT22;17904;47.420;9.310;2022-08-07T01:14:19;15.40;99.90
31271;DHT22;17904;47.420;9.310;2022-08-07T01:16:54;15.40;99.90
31271;DHT22;17904;47.420;9.310;2022-08-07T01:19:22;15.50;99.90
31271;DHT22;17904;47.420;9.310;2022-08-07T01:21:53;15.50;99.90
31271;DHT22;17904;47.420;9.310;2022-08-07T01:24:26;15.50;99.90
31271;DHT22;17904;47.420;9.310;2022-08-07T01:26:58;15.50;99.90
31271;DHT22;17904;47.420;9.310;2022-08-07T01:29:26;15.50;99.90
31271;DHT22;17904;47.420;9.310;2022-08-07T01:31:58;15.50;99.90
31271;DHT22;17904;47.420;9.310;2022-08-07T01:34:31;15.50;99.90
31271;DHT22;17904;47.420;9.310;2022-08-07T01:37:05;15.50;99.90
31271;DHT22;17904;47.420;9.310;2022-08-07T01:39:37;15.60;99.90
31271;DHT22;17904;47.420;9.310;2022-08-07T01:42:26;15.60;99.90
31271;DHT22;17904;47.420;9.310;2022-08-07T01:45:07;15.60;99.90
31271;DHT22;17904;47.420;9.310;2022-08-07T01:47:42;15.60;99.90
31271;DHT22;17904;47.420;9.310;2022-08-07T01:50:29;15.60;99.90
31271;DHT22;17904;47.420;9.310;2022-08-07T01:52:59;15.60;99.90
31271;DHT22;17904;47.420;9.310;2022-08-07T01:55:41;15.60;99.90
31271;DHT22;17904;47.420;9.310;2022-08-07T01:58:12;15.60;99.90
31271;DHT22;17904;47.420;9.310;2022-08-07T02:00:58;15.60;99.90
31271;DHT22;17904;47.420;9.310;2022-08-07T02:03:50;15.60;99.90
31271;DHT22;17904;47.420;9.310;2022-08-07T02:06:19;15.60;99.90
31271;DHT22;17904;47.420;9.310;2022-08-07T02:09:03;15.60;99.90
31271;DHT22;17904;47.420;9.310;2022-08-07T02:11:34;15.60;99.90
31271;DHT22;17904;47.420;9.310;2022-08-07T02:14:27;15.60;99.90
31271;DHT22;17904;47.420;9.310;2022-08-07T02:17:14;15.60;99.90
31271;DHT22;17904;47.420;9.310;2022-08-07T02:19:55;15.60;99.90
31271;DHT22;17904;47.420;9.310;2022-08-07T02:22:35;15.60;99.90
31271;DHT22;17904;47.420;9.310;2022-08-07T02:25:09;15.60;99.90
31271;DHT22;17904;47.420;9.310;2022-08-07T02:27:47;15.60;99.90
31271;DHT22;17904;47.420;9.310;2022-08-07T02:30:19;15.60;99.90
31271;DHT22;17904;47.420;9.310;2022-08-07T02:32:49;15.60;99.90
31271;DHT22;17904;47.420;9.310;2022-08-07T02:35:36;15.60;99.90
31271;DHT22;17904;47.420;9.310;2022-08-07T02:38:29;15.60;99.90
31271;DHT22;17904;47.420;9.310;2022-08-07T02:41:00;15.60;99.90
31271;DHT22;17904;47.420;9.310;2022-08-07T02:43:33;15.60;99.90
31271;DHT22;17904;47.420;9.310;2022-08-07T02:46:05;15.60;99.90
31271;DHT22;17904;47.420;9.310;2022-08-07T02:48:34;15.60;99.90
31271;DHT22;17904;47.420;9.310;2022-08-07T02:51:10;15.60;99.90
31271;DHT22;17904;47.420;9.310;2022-08-07T02:54:00;15.60;99.90
31271;DHT22;17904;47.420;9.310;2022-08-07T02:56:30;15.60;99.90
31271;DHT22;17904;47.420;9.310;2022-08-07T02:59:01;15.60;99.90
31271;DHT22;17904;47.420;9.310;2022-08-07T03:01:32;15.70;99.90
31271;DHT22;17904;47.420;9.310;2022-08-07T03:04:10;15.70;99.90
31271;DHT22;17904;47.420;9.310;2022-08-07T03:06:45;15.60;99.90
31271;DHT22;17904;47.420;9.310;2022-08-07T03:09:15;15.70;99.90
31271;DHT22;17904;47.420;9.310;2022-08-07T03:12:07;15.60;99.90
31271;DHT22;17904;47.420;9.310;2022-08-07T03:14:49;15.60;99.90
31271;DHT22;17904;47.420;9.310;2022-08-07T03:17:18;15.60;99.90
31271;DHT22;17904;47.420;9.310;2022-08-07T03:19:49;15.70;99.90
31271;DHT22;17904;47.420;9.310;2022-08-07T03:22:22;15.60;99.90
31271;DHT22;17904;47.420;9.310;2022-08-07T03:24:56;15.70;99.90
31271;DHT22;17904;47.420;9.310;2022-08-07T03:27:23;15.70;99.90
31271;DHT22;17904;47.420;9.310;2022-08-07T03:30:00;15.70;99.90
31271;DHT22;17904;47.420;9.310;2022-08-07T03:32:36;15.70;99.90
31271;DHT22;17904;47.420;9.310;2022-08-07T03:35:08;15.70;99.90
31271;DHT22;17904;47.420;9.310;2022-08-07T03:37:49;15.70;99.90
31271;DHT22;17904;47.420;9.310;2022-08-07T03:40:26;15.60;99.90
31271;DHT22;17904;47.420;9.310;2022-08-07T03:43:06;15.60;99.90
31271;DHT22;17904;47.420;9.310;2022-08-07T03:45:42;15.50;99.90
31271;DHT22;17904;47.420;9.310;2022-08-07T03:48:16;15.60;99.90
31271;DHT22;17904;47.420;9.310;2022-08-07T03:50:44;15.50;99.90
31271;DHT22;17904;47.420;9.310;2022-08-07T03:53:27;15.50;99.90
31271;DHT22;17904;47.420;9.310;2022-08-07T03:56:18;15.50;99.90
31271;DHT22;17904;47.420;9.310;2022-08-07T03:59:04;15.50;99.90
31271;DHT22;17904;47.420;9.310;2022-08-07T04:01:41;15.50;99.90
31271;DHT22;17904;47.420;9.310;2022-08-07T04:04:15;15.40;99.90
31271;DHT22;17904;47.420;9.310;2022-08-07T04:06:46;15.40;99.90
31271;DHT22;17904;47.420;9.310;2022-08-07T04:09:19;15.50;99.90
31271;DHT22;17904;47.420;9.310;2022-08-07T04:11:53;15.40;99.90
31271;DHT22;17904;47.420;9.310;2022-08-07T04:14:41;15.50;99.90
31271;DHT22;17904;47.420;9.310;2022-08-07T04:17:15;15.40;99.90
31271;DHT22;17904;47.420;9.310;2022-08-07T04:19:49;15.50;99.90
31271;DHT22;17904;47.420;9.310;2022-08-07T04:22:22;15.40;99.90
31271;DHT22;17904;47.420;9.310;2022-08-07T04:24:59;15.40;99.90
31271;DHT22;17904;47.420;9.310;2022-08-07T04:27:28;15.40;99.90
31271;DHT22;17904;47.420;9.310;2022-08-07T04:30:08;15.40;99.90
31271;DHT22;17904;47.420;9.310;2022-08-07T04:33:00;15.40;99.90
31271;DHT22;17904;47.420;9.310;2022-08-07T04:35:38;15.40;99.90
31271;DHT22;17904;47.420;9.310;2022-08-07T04:38:11;15.40;99.90
31271;DHT22;17904;47.420;9.310;2022-08-07T04:40:43;15.40;99.90
31271;DHT22;17904;47.420;9.310;2022-08-07T04:43:29;15.40;99.90
31271;DHT22;17904;47.420;9.310;2022-08-07T04:46:40;15.40;99.90
31271;DHT22;17904;47.420;9.310;2022-08-07T04:52:52;15.40;99.90
31271;DHT22;17904;47.420;9.310;2022-08-07T04:55:31;15.40;99.90
31271;DHT22;17904;47.420;9.310;2022-08-07T04:58:30;15.40;99.90
31271;DHT22;17904;47.420;9.310;2022-08-07T05:01:27;15.40;99.90
31271;DHT22;17904;47.420;9.310;2022-08-07T05:04:07;15.50;99.90
31271;DHT22;17904;47.420;9.310;2022-08-07T05:09:36;15.50;99.90
31271;DHT22;17904;47.420;9.310;2022-08-07T05:12:17;15.50;99.90
31271;DHT22;17904;47.420;9.310;2022-08-07T05:15:06;15.50;99.90
31271;DHT22;17904;47.420;9.310;2022-08-07T05:17:57;15.50;99.90
31271;DHT22;17904;47.420;9.310;2022-08-07T05:20:38;15.50;99.90
31271;DHT22;17904;47.420;9.310;2022-08-07T05:23:37;15.60;99.90
31271;DHT22;17904;47.420;9.310;2022-08-07T05:26:12;15.60;99.90
31271;DHT22;17904;47.420;9.310;2022-08-07T05:28:54;15.60;99.90
31271;DHT22;17904;47.420;9.310;2022-08-07T05:31:30;15.60;99.90
31271;DHT22;17904;47.420;9.310;2022-08-07T05:34:02;15.60;99.90
31271;DHT22;17904;47.420;9.310;2022-08-07T05:36:36;15.70;99.90
31271;DHT22;17904;47.420;9.310;2022-08-07T05:39:10;15.70;99.90
31271;DHT22;17904;47.420;9.310;2022-08-07T05:42:00;15.70;99.90
31271;DHT22;17904;47.420;9.310;2022-08-07T05:44:37;15.70;99.90
31271;DHT22;17904;47.420;9.310;2022-08-07T05:47:19;15.70;99.90
31271;DHT22;17904;47.420;9.310;2022-08-07T05:50:05;15.70;99.90
31271;DHT22;17904;47.420;9.310;2022-08-07T05:52:35;15.70;99.90
31271;DHT22;17904;47.420;9.310;2022-08-07T05:55:04;15.70;99.90
31271;DHT22;17904;47.420;9.310;2022-08-07T05:57:40;15.70;99.90
31271;DHT22;17904;47.420;9.310;2022-08-07T06:00:12;15.70;99.90
31271;DHT22;17904;47.420;9.310;2022-08-07T06:02:50;15.70;99.90
31271;DHT22;17904;47.420;9.310;2022-08-07T06:05:22;15.70;99.90
31271;DHT22;17904;47.420;9.310;2022-08-07T06:07:58;15.70;99.90
31271;DHT22;17904;47.420;9.310;2022-08-07T06:10:47;15.70;99.90
31271;DHT22;17904;47.420;9.310;2022-08-07T06:13:21;15.70;99.90
31271;DHT22;17904;47.420;9.310;2022-08-07T06:16:09;15.80;99.90
31271;DHT22;17904;47.420;9.310;2022-08-07T06:18:40;15.80;99.90
31271;DHT22;17904;47.420;9.310;2022-08-07T06:21:10;15.80;99.90
31271;DHT22;17904;47.420;9.310;2022-08-07T06:23:57;15.80;99.90
31271;DHT22;17904;47.420;9.310;2022-08-07T06:26:45;15.80;99.90
31271;DHT22;17904;47.420;9.310;2022-08-07T06:29:13;15.80;99.90
31271;DHT22;17904;47.420;9.310;2022-08-07T06:31:40;15.80;99.90
31271;DHT22;17904;47.420;9.310;2022-08-07T06:34:17;15.80;99.90
31271;DHT22;17904;47.420;9.310;2022-08-07T06:36:47;15.80;99.90
31271;DHT22;17904;47.420;9.310;2022-08-07T06:39:21;15.90;99.90
31271;DHT22;17904;47.420;9.310;2022-08-07T06:42:27;15.90;99.90
31271;DHT22;17904;47.420;9.310;2022-08-07T06:45:13;15.90;99.90
31271;DHT22;17904;47.420;9.310;2022-08-07T06:47:47;15.90;99.90
31271;DHT22;17904;47.420;9.310;2022-08-07T06:50:40;15.90;99.90
31271;DHT22;17904;47.420;9.310;2022-08-07T06:53:14;16.00;99.90
31271;DHT22;17904;47.420;9.310;2022-08-07T06:56:04;16.00;99.90
31271;DHT22;17904;47.420;9.310;2022-08-07T06:58:42;16.00;99.90
31271;DHT22;17904;47.420;9.310;2022-08-07T07:01:32;16.00;99.90
31271;DHT22;17904;47.420;9.310;2022-08-07T07:04:10;16.10;99.90
31271;DHT22;17904;47.420;9.310;2022-08-07T07:06:57;16.10;99.90
31271;DHT22;17904;47.420;9.310;2022-08-07T07:09:30;16.10;99.90
31271;DHT22;17904;47.420;9.310;2022-08-07T07:15:13;16.10;99.90
31271;DHT22;17904;47.420;9.310;2022-08-07T07:18:15;16.10;99.90
31271;DHT22;17904;47.420;9.310;2022-08-07T07:21:09;16.10;99.90
31271;DHT22;17904;47.420;9.310;2022-08-07T07:23:45;16.20;99.90
31271;DHT22;17904;47.420;9.310;2022-08-07T07:26:32;16.20;99.90
31271;DHT22;17904;47.420;9.310;2022-08-07T07:29:09;16.20;99.90
31271;DHT22;17904;47.420;9.310;2022-08-07T07:31:57;16.20;99.90
31271;DHT22;17904;47.420;9.310;2022-08-07T07:34:29;16.20;99.90
31271;DHT22;17904;47.420;9.310;2022-08-07T07:36:59;16.30;99.90
31271;DHT22;17904;47.420;9.310;2022-08-07T07:39:49;16.30;99.90
31271;DHT22;17904;47.420;9.310;2022-08-07T07:42:22;16.40;99.90
31271;DHT22;17904;47.420;9.310;2022-08-07T07:45:00;16.40;99.90
31271;DHT22;17904;47.420;9.310;2022-08-07T07:47:29;16.40;99.90
31271;DHT22;17904;47.420;9.310;2022-08-07T07:50:17;16.40;99.90
31271;DHT22;17904;47.420;9.310;2022-08-07T07:53:06;16.40;99.90
31271;DHT22;17904;47.420;9.310;2022-08-07T07:55:52;16.40;99.90
31271;DHT22;17904;47.420;9.310;2022-08-07T07:58:33;16.50;99.90
31271;DHT22;17904;47.420;9.310;2022-08-07T08:01:08;16.40;99.90
31271;DHT22;17904;47.420;9.310;2022-08-07T08:03:57;16.50;99.90
31271;DHT22;17904;47.420;9.310;2022-08-07T08:06:37;16.50;99.90
31271;DHT22;17904;47.420;9.310;2022-08-07T08:09:06;16.60;99.90
31271;DHT22;17904;47.420;9.310;2022-08-07T08:11:36;16.60;99.90
31271;DHT22;17904;47.420;9.310;2022-08-07T08:14:23;16.70;99.90
31271;DHT22;17904;47.420;9.310;2022-08-07T08:16:53;16.70;99.90
31271;DHT22;17904;47.420;9.310;2022-08-07T08:19:42;16.70;99.90
31271;DHT22;17904;47.420;9.310;2022-08-07T08:22:30;16.70;99.90
31271;DHT22;17904;47.420;9.310;2022-08-07T08:25:22;16.70;99.90
31271;DHT22;17904;47.420;9.310;2022-08-07T08:28:19;16.80;99.90
31271;DHT22;17904;47.420;9.310;2022-08-07T08:31:05;16.80;99.90
31271;DHT22;17904;47.420;9.310;2022-08-07T08:33:41;16.90;99.90
31271;DHT22;17904;47.420;9.310;2022-08-07T08:36:17;16.90;99.90
31271;DHT22;17904;47.420;9.310;2022-08-07T08:38:53;16.90;99.90
31271;DHT22;17904;47.420;9.310;2022-08-07T08:41:31;16.90;99.90
31271;DHT22;17904;47.420;9.310;2022-08-07T08:44:34;16.90;99.90
31271;DHT22;17904;47.420;9.310;2022-08-07T08:47:23;16.90;99.90
31271;DHT22;17904;47.420;9.310;2022-08-07T08:50:11;16.90;99.90
31271;DHT22;17904;47.420;9.310;2022-08-07T08:53:35;16.90;99.90
31271;DHT22;17904;47.420;9.310;2022-08-07T08:56:11;17.00;99.90
31271;DHT22;17904;47.420;9.310;2022-08-07T09:01:41;17.00;99.90
31271;DHT22;17904;47.420;9.310;2022-08-07T09:04:21;17.00;99.90
31271;DHT22;17904;47.420;9.310;2022-08-07T09:07:12;17.00;99.90
31271;DHT22;17904;47.420;9.310;2022-08-07T09:09:55;17.00;99.90
31271;DHT22;17904;47.420;9.310;2022-08-07T09:15:37;17.00;99.90
31271;DHT22;17904;47.420;9.310;2022-08-07T09:37:13;17.10;99.90
31271;DHT22;17904;47.420;9.310;2022-08-07T09:39:24;17.10;99.90
31271;DHT22;17904;47.420;9.310;2022-08-07T09:45:10;17.10;99.90
31271;DHT22;17904;47.420;9.310;2022-08-07T09:48:19;17.10;99.90
31271;DHT22;17904;47.420;9.310;2022-08-07T09:51:26;17.00;99.90
31271;DHT22;17904;47.420;9.310;2022-08-07T09:54:58;17.00;99.90
31271;DHT22;17904;47.420;9.310;2022-08-07T10:00:09;17.10;99.90
31271;DHT22;17904;47.420;9.310;2022-08-07T10:03:08;17.10;99.90
31271;DHT22;17904;47.420;9.310;2022-08-07T10:09:09;17.10;99.90
31271;DHT22;17904;47.420;9.310;2022-08-07T10:12:04;17.10;99.90
31271;DHT22;17904;47.420;9.310;2022-08-07T10:15:26;17.10;99.90
31271;DHT22;17904;47.420;9.310;2022-08-07T10:20:44;17.10;99.90
31271;DHT22;17904;47.420;9.310;2022-08-07T10:32:26;17.10;99.90
31271;DHT22;17904;47.420;9.310;2022-08-07T10:35:27;17.20;99.90
31271;DHT22;17904;47.420;9.310;2022-08-07T10:41:13;17.20;99.90
31271;DHT22;17904;47.420;9.310;2022-08-07T10:44:19;17.20;99.90
31271;DHT22;17904;47.420;9.310;2022-08-07T10:47:32;17.20;99.90
31271;DHT22;17904;47.420;9.310;2022-08-07T10:50:23;17.30;99.90
31271;DHT22;17904;47.420;9.310;2022-08-07T10:58:38;17.40;99.90
31271;DHT22;17904;47.420;9.310;2022-08-07T11:07:13;17.40;99.90
31271;DHT22;17904;47.420;9.310;2022-08-07T11:10:11;17.40;99.90
31271;DHT22;17904;47.420;9.310;2022-08-07T11:12:57;17.40;99.90
31271;DHT22;17904;47.420;9.310;2022-08-07T11:15:33;17.40;99.90
31271;DHT22;17904;47.420;9.310;2022-08-07T11:18:17;17.40;99.90
31271;DHT22;17904;47.420;9.310;2022-08-07T11:21:13;17.30;99.90
31271;DHT22;17904;47.420;9.310;2022-08-07T11:29:08;17.40;99.90
31271;DHT22;17904;47.420;9.310;2022-08-07T11:40:32;17.50;99.90
31271;DHT22;17904;47.420;9.310;2022-08-07T11:48:53;17.90;99.90
31271;DHT22;17904;47.420;9.310;2022-08-07T11:54:56;18.10;99.90
31271;DHT22;17904;47.420;9.310;2022-08-07T11:57:46;18.30;99.90
31271;DHT22;17904;47.420;9.310;2022-08-07T12:04:08;18.60;99.90
31271;DHT22;17904;47.420;9.310;2022-08-07T12:07:02;18.60;99.90
31271;DHT22;17904;47.420;9.310;2022-08-07T12:09:53;18.70;99.90
31271;DHT22;17904;47.420;9.310;2022-08-07T12:12:27;18.80;99.90
31271;DHT22;17904;47.420;9.310;2022-08-07T12:15:02;18.90;99.90
31271;DHT22;17904;47.420;9.310;2022-08-07T12:17:46;19.00;99.90
31271;DHT22;17904;47.420;9.310;2022-08-07T12:20:37;19.10;99.90
31271;DHT22;17904;47.420;9.310;2022-08-07T12:26:48;19.10;99.90
31271;DHT22;17904;47.420;9.310;2022-08-07T12:29:22;19.10;99.90
31271;DHT22;17904;47.420;9.310;2022-08-07T12:32:18;19.10;99.90
31271;DHT22;17904;47.420;9.310;2022-08-07T12:34:49;19.10;99.90
31271;DHT22;17904;47.420;9.310;2022-08-07T12:37:23;19.10;99.90
31271;DHT22;17904;47.420;9.310;2022-08-07T12:40:11;19.10;99.90
31271;DHT22;17904;47.420;9.310;2022-08-07T12:43:03;19.10;99.90
31271;DHT22;17904;47.420;9.310;2022-08-07T12:52:09;19.30;99.90
31271;DHT22;17904;47.420;9.310;2022-08-07T12:54:59;19.30;99.90
31271;DHT22;17904;47.420;9.310;2022-08-07T12:57:37;19.40;99.90
31271;DHT22;17904;47.420;9.310;2022-08-07T13:10:13;19.50;99.90
31271;DHT22;17904;47.420;9.310;2022-08-07T13:18:30;19.50;99.90
31271;DHT22;17904;47.420;9.310;2022-08-07T13:21:06;19.50;99.90
31271;DHT22;17904;47.420;9.310;2022-08-07T13:26:41;19.50;99.90
31271;DHT22;17904;47.420;9.310;2022-08-07T13:29:22;19.50;99.90
31271;DHT22;17904;47.420;9.310;2022-08-07T13:32:02;19.50;99.90
31271;DHT22;17904;47.420;9.310;2022-08-07T13:35:45;19.50;99.90
31271;DHT22;17904;47.420;9.310;2022-08-07T13:40:36;19.50;99.90
31271;DHT22;17904;47.420;9.310;2022-08-07T13:43:14;19.40;99.90
31271;DHT22;17904;47.420;9.310;2022-08-07T13:45:46;19.40;99.90
31271;DHT22;17904;47.420;9.310;2022-08-07T13:48:39;19.40;99.90
31271;DHT22;17904;47.420;9.310;2022-08-07T13:51:24;19.40;99.90
31271;DHT22;17904;47.420;9.310;2022-08-07T13:54:13;19.40;99.90
31271;DHT22;17904;47.420;9.310;2022-08-07T13:56:51;19.40;99.90
31271;DHT22;17904;47.420;9.310;2022-08-07T13:59:28;19.40;99.90
31271;DHT22;17904;47.420;9.310;2022-08-07T14:02:04;19.40;99.90
31271;DHT22;17904;47.420;9.310;2022-08-07T14:04:49;19.50;99.90
31271;DHT22;17904;47.420;9.310;2022-08-07T14:07:23;19.50;99.90
31271;DHT22;17904;47.420;9.310;2022-08-07T14:09:55;19.50;99.90
31271;DHT22;17904;47.420;9.310;2022-08-07T14:12:45;19.60;99.90
31271;DHT22;17904;47.420;9.310;2022-08-07T14:15:37;19.50;99.90
31271;DHT22;17904;47.420;9.310;2022-08-07T14:18:15;19.50;99.90
31271;DHT22;17904;47.420;9.310;2022-08-07T14:21:12;19.50;99.90
31271;DHT22;17904;47.420;9.310;2022-08-07T14:24:03;19.50;99.90
31271;DHT22;17904;47.420;9.310;2022-08-07T14:26:57;19.40;99.90
31271;DHT22;17904;47.420;9.310;2022-08-07T14:29:34;19.40;99.90
31271;DHT22;17904;47.420;9.310;2022-08-07T14:32:22;19.40;99.90
31271;DHT22;17904;47.420;9.310;2022-08-07T14:34:53;19.40;99.90
31271;DHT22;17904;47.420;9.310;2022-08-07T14:37:20;19.30;99.90
31271;DHT22;17904;47.420;9.310;2022-08-07T14:40:06;19.30;99.90
31271;DHT22;17904;47.420;9.310;2022-08-07T14:43:11;19.30;99.90
31271;DHT22;17904;47.420;9.310;2022-08-07T14:45:59;19.20;99.90
31271;DHT22;17904;47.420;9.310;2022-08-07T14:48:29;19.20;99.90
31271;DHT22;17904;47.420;9.310;2022-08-07T14:51:10;19.10;99.90
31271;DHT22;17904;47.420;9.310;2022-08-07T14:53:43;19.00;99.90
31271;DHT22;17904;47.420;9.310;2022-08-07T14:56:31;19.00;99.90
31271;DHT22;17904;47.420;9.310;2022-08-07T14:59:02;19.00;99.90
31271;DHT22;17904;47.420;9.310;2022-08-07T15:01:53;18.90;99.90
31271;DHT22;17904;47.420;9.310;2022-08-07T15:04:25;18.90;99.90
31271;DHT22;17904;47.420;9.310;2022-08-07T15:06:55;18.90;99.90
31271;DHT22;17904;47.420;9.310;2022-08-07T15:09:23;18.90;99.90
31271;DHT22;17904;47.420;9.310;2022-08-07T15:12:15;18.90;99.90
31271;DHT22;17904;47.420;9.310;2022-08-07T15:15:08;18.80;99.90
31271;DHT22;17904;47.420;9.310;2022-08-07T15:17:54;18.80;99.90
31271;DHT22;17904;47.420;9.310;2022-08-07T15:20:25;18.80;99.90
31271;DHT22;17904;47.420;9.310;2022-08-07T15:23:26;18.70;99.90
31271;DHT22;17904;47.420;9.310;2022-08-07T15:26:15;18.70;99.90
31271;DHT22;17904;47.420;9.310;2022-08-07T15:28:47;18.60;99.90
31271;DHT22;17904;47.420;9.310;2022-08-07T15:31:40;18.60;99.90
31271;DHT22;17904;47.420;9.310;2022-08-07T15:34:36;18.50;99.90
31271;DHT22;17904;47.420;9.310;2022-08-07T15:37:17;18.40;99.90
31271;DHT22;17904;47.420;9.310;2022-08-07T15:39:59;18.40;99.90
31271;DHT22;17904;47.420;9.310;2022-08-07T15:48:29;18.20;99.90
31271;DHT22;17904;47.420;9.310;2022-08-07T15:51:04;18.10;99.90
31271;DHT22;17904;47.420;9.310;2022-08-07T15:53:42;18.10;99.90
31271;DHT22;17904;47.420;9.310;2022-08-07T15:56:28;18.00;99.90
31271;DHT22;17904;47.420;9.310;2022-08-07T15:59:06;18.00;99.90
31271;DHT22;17904;47.420;9.310;2022-08-07T16:01:51;17.90;99.90
31271;DHT22;17904;47.420;9.310;2022-08-07T16:04:30;17.90;99.90
31271;DHT22;17904;47.420;9.310;2022-08-07T16:07:01;17.80;99.90
31271;DHT22;17904;47.420;9.310;2022-08-07T16:09:52;17.80;99.90
31271;DHT22;17904;47.420;9.310;2022-08-07T16:12:47;17.80;99.90
31271;DHT22;17904;47.420;9.310;2022-08-07T16:15:54;17.70;99.90
31271;DHT22;17904;47.420;9.310;2022-08-07T16:21:46;17.80;99.90
31271;DHT22;17904;47.420;9.310;2022-08-07T16:24:48;17.80;99.90
31271;DHT22;17904;47.420;9.310;2022-08-07T16:27:30;17.70;99.90
31271;DHT22;17904;47.420;9.310;2022-08-07T16:30:09;17.70;99.90
31271;DHT22;17904;47.420;9.310;2022-08-07T16:33:13;17.80;99.90
31271;DHT22;17904;47.420;9.310;2022-08-07T16:39:31;17.70;99.90
31271;DHT22;17904;47.420;9.310;2022-08-07T16:52:12;17.80;99.90
31271;DHT22;17904;47.420;9.310;2022-08-07T16:55:34;17.80;99.90
31271;DHT22;17904;47.420;9.310;2022-08-07T16:58:31;17.80;99.90
31271;DHT22;17904;47.420;9.310;2022-08-07T17:01:47;17.90;99.90
31271;DHT22;17904;47.420;9.310;2022-08-07T17:07:15;18.10;99.90
31271;DHT22;17904;47.420;9.310;2022-08-07T17:12:46;18.20;99.90
31271;DHT22;17904;47.420;9.310;2022-08-07T17:15:35;18.30;99.90
31271;DHT22;17904;47.420;9.310;2022-08-07T17:21:10;18.40;99.90
31271;DHT22;17904;47.420;9.310;2022-08-07T17:27:13;18.50;99.90
31271;DHT22;17904;47.420;9.310;2022-08-07T17:30:05;18.50;99.90
31271;DHT22;17904;47.420;9.310;2022-08-07T17:32:59;18.50;99.90
31271;DHT22;17904;47.420;9.310;2022-08-07T17:38:31;18.50;99.90
31271;DHT22;17904;47.420;9.310;2022-08-07T17:41:06;18.40;99.90
31271;DHT22;17904;47.420;9.310;2022-08-07T17:44:02;18.40;99.90
31271;DHT22;17904;47.420;9.310;2022-08-07T17:47:02;18.30;99.90
31271;DHT22;17904;47.420;9.310;2022-08-07T17:50:35;18.30;99.90
31271;DHT22;17904;47.420;9.310;2022-08-07T17:52:59;18.20;99.90
31271;DHT22;17904;47.420;9.310;2022-08-07T17:55:43;18.10;99.90
31271;DHT22;17904;47.420;9.310;2022-08-07T18:10:07;17.80;99.90
31271;DHT22;17904;47.420;9.310;2022-08-07T18:16:06;17.70;99.90
31271;DHT22;17904;47.420;9.310;2022-08-07T18:18:48;17.60;99.90
31271;DHT22;17904;47.420;9.310;2022-08-07T18:21:42;17.50;99.90
31271;DHT22;17904;47.420;9.310;2022-08-07T18:24:46;17.30;99.90
31271;DHT22;17904;47.420;9.310;2022-08-07T18:35:26;17.10;99.90
31271;DHT22;17904;47.420;9.310;2022-08-07T18:38:26;17.00;99.90
31271;DHT22;17904;47.420;9.310;2022-08-07T18:41:51;16.90;99.90
31271;DHT22;17904;47.420;9.310;2022-08-07T18:48:08;16.80;99.90
31271;DHT22;17904;47.420;9.310;2022-08-07T18:56:42;16.60;99.90
31271;DHT22;17904;47.420;9.310;2022-08-07T18:59:47;16.60;99.90
31271;DHT22;17904;47.420;9.310;2022-08-07T19:05:58;16.50;99.90
31271;DHT22;17904;47.420;9.310;2022-08-07T19:08:42;16.50;99.90
31271;DHT22;17904;47.420;9.310;2022-08-07T19:11:15;16.40;99.90
31271;DHT22;17904;47.420;9.310;2022-08-07T19:14:22;16.40;99.90
31271;DHT22;17904;47.420;9.310;2022-08-07T19:16:56;16.30;99.90
31271;DHT22;17904;47.420;9.310;2022-08-07T19:19:57;16.30;99.90
31271;DHT22;17904;47.420;9.310;2022-08-07T19:22:36;16.30;99.90
31271;DHT22;17904;47.420;9.310;2022-08-07T19:25:14;16.30;99.90
31271;DHT22;17904;47.420;9.310;2022-08-07T19:28:06;16.20;99.90
31271;DHT22;17904;47.420;9.310;2022-08-07T19:31:10;16.20;99.90
31271;DHT22;17904;47.420;9.310;2022-08-07T19:33:59;16.20;99.90
31271;DHT22;17904;47.420;9.310;2022-08-07T19:36:31;16.20;99.90
31271;DHT22;17904;47.420;9.310;2022-08-07T19:39:00;16.10;99.90
31271;DHT22;17904;47.420;9.310;2022-08-07T19:41:43;16.10;99.90
31271;DHT22;17904;47.420;9.310;2022-08-07T19:44:41;16.10;99.90
31271;DHT22;17904;47.420;9.310;2022-08-07T19:47:15;16.10;99.90
31271;DHT22;17904;47.420;9.310;2022-08-07T19:49:53;16.10;99.90
31271;DHT22;17904;47.420;9.310;2022-08-07T19:52:29;16.10;99.90
31271;DHT22;17904;47.420;9.310;2022-08-07T19:54:57;16.10;99.90
31271;DHT22;17904;47.420;9.310;2022-08-07T19:57:38;16.00;99.90
31271;DHT22;17904;47.420;9.310;2022-08-07T20:00:26;16.00;99.90
31271;DHT22;17904;47.420;9.310;2022-08-07T20:02:59;16.00;99.90
31271;DHT22;17904;47.420;9.310;2022-08-07T20:05:33;16.00;99.90
31271;DHT22;17904;47.420;9.310;2022-08-07T20:08:27;16.00;99.90
31271;DHT22;17904;47.420;9.310;2022-08-07T20:11:15;15.90;99.90
31271;DHT22;17904;47.420;9.310;2022-08-07T20:14:02;15.90;99.90
31271;DHT22;17904;47.420;9.310;2022-08-07T20:16:40;15.90;99.90
31271;DHT22;17904;47.420;9.310;2022-08-07T20:19:12;15.90;99.90
31271;DHT22;17904;47.420;9.310;2022-08-07T20:21:40;15.80;99.90
31271;DHT22;17904;47.420;9.310;2022-08-07T20:24:25;15.80;99.90